createdAt,value
2018-02-19T00:00:01.352Z,0
2018-02-19T00:01:01.325Z,0
2018-02-19T00:02:01.324Z,0
2018-02-19T00:03:01.302Z,0
2018-02-19T00:04:01.286Z,0
2018-02-19T00:05:01.284Z,0
2018-02-19T00:06:01.267Z,0
2018-02-19T00:07:01.239Z,0
2018-02-19T00:08:00.980Z,0
2018-02-19T00:09:01.233Z,0
2018-02-19T00:10:00.954Z,0
2018-02-19T00:11:01.221Z,0
2018-02-19T00:12:00.926Z,0
2018-02-19T00:13:01.163Z,0
2018-02-19T00:14:00.903Z,0
2018-02-19T00:15:01.159Z,0
2018-02-19T00:16:00.863Z,0
2018-02-19T00:17:01.110Z,0
2018-02-19T00:18:00.836Z,0
2018-02-19T00:19:00.829Z,0
2018-02-19T00:20:00.812Z,0
2018-02-19T00:21:00.795Z,0
2018-02-19T00:22:01.040Z,0
2018-02-19T00:23:00.771Z,0
2018-02-19T00:24:01.031Z,0
2018-02-19T00:25:00.745Z,0
2018-02-19T00:26:00.990Z,0
2018-02-19T00:27:00.978Z,0
2018-02-19T00:28:00.699Z,0
2018-02-19T00:29:00.953Z,0
2018-02-19T00:30:00.936Z,0
2018-02-19T00:31:00.913Z,0
2018-02-19T00:32:00.890Z,0
2018-02-19T00:33:00.883Z,0
2018-02-19T00:34:00.876Z,0
2018-02-19T00:35:00.858Z,0
2018-02-19T00:36:00.860Z,0
2018-02-19T00:37:00.834Z,0
2018-02-19T00:38:00.567Z,0
2018-02-19T00:39:00.802Z,0
2018-02-19T00:40:00.277Z,0
2018-02-19T00:41:00.788Z,0
2018-02-19T00:42:00.764Z,0
2018-02-19T00:43:00.498Z,0
2018-02-19T00:44:00.480Z,0
2018-02-19T00:45:00.730Z,0
2018-02-19T00:46:00.703Z,0
2018-02-19T00:47:00.440Z,0
2018-02-19T00:48:00.680Z,0
2018-02-19T00:49:00.670Z,0
2018-02-19T00:50:00.653Z,0
2018-02-19T00:51:00.647Z,0
2018-02-19T00:52:00.630Z,0
2018-02-19T00:53:00.606Z,0
2018-02-19T00:54:00.342Z,0
2018-02-19T00:55:00.586Z,0
2018-02-19T00:56:00.569Z,0
2018-02-19T00:57:00.559Z,0
2018-02-19T00:58:00.287Z,0
2018-02-19T00:59:00.530Z,0
2018-02-19T01:00:00.518Z,0
2018-02-19T01:01:00.518Z,0
2018-02-19T01:02:00.227Z,0
2018-02-19T01:03:00.483Z,0
2018-02-19T01:04:00.196Z,0
2018-02-19T01:05:00.437Z,0
2018-02-19T01:06:00.431Z,0
2018-02-19T01:07:00.158Z,0
2018-02-19T01:08:00.138Z,0
2018-02-19T01:09:00.128Z,0
2018-02-19T01:10:00.369Z,0
2018-02-19T01:11:00.355Z,0
2018-02-19T01:12:00.332Z,0
2018-02-19T01:13:00.367Z,0
2018-02-19T01:14:00.321Z,0
2018-02-19T01:15:00.290Z,0
2018-02-19T01:16:00.062Z,0
2018-02-19T01:17:00.276Z,0
2018-02-19T01:18:00.247Z,0
2018-02-19T01:18:59.980Z,0
2018-02-19T01:19:59.968Z,0
2018-02-19T01:21:00.252Z,0
2018-02-19T01:22:00.202Z,0
2018-02-19T01:22:59.934Z,0
2018-02-19T01:24:00.162Z,0
2018-02-19T01:25:00.155Z,0
2018-02-19T01:26:00.132Z,0
2018-02-19T01:27:00.128Z,0
2018-02-19T01:27:59.854Z,0
2018-02-19T01:28:59.829Z,0
2018-02-19T01:29:59.814Z,0
2018-02-19T01:31:00.065Z,0
2018-02-19T01:32:00.040Z,0
2018-02-19T01:33:00.032Z,0
2018-02-19T01:34:00.010Z,0
2018-02-19T01:34:59.994Z,0
2018-02-19T01:35:59.980Z,0
2018-02-19T01:36:59.972Z,0
2018-02-19T01:37:59.952Z,0
2018-02-19T01:38:59.935Z,0
2018-02-19T01:39:59.912Z,0
2018-02-19T01:40:59.905Z,0
2018-02-19T01:41:59.932Z,0
2018-02-19T01:42:59.905Z,0
2018-02-19T01:43:59.603Z,0
2018-02-19T01:44:59.598Z,0
2018-02-19T01:45:59.574Z,0
2018-02-19T01:46:59.809Z,0
2018-02-19T01:47:59.805Z,0
2018-02-19T01:48:59.791Z,0
2018-02-19T01:49:59.767Z,0
2018-02-19T01:50:59.753Z,0
2018-02-19T01:51:59.738Z,0
2018-02-19T01:52:59.727Z,0
2018-02-19T01:53:59.472Z,0
2018-02-19T01:54:59.439Z,0
2018-02-19T01:55:59.681Z,0
2018-02-19T01:56:59.423Z,0
2018-02-19T01:57:59.648Z,0
2018-02-19T01:58:59.381Z,0
2018-02-19T01:59:59.625Z,0
2018-02-19T02:00:59.612Z,0
2018-02-19T02:01:59.598Z,0
2018-02-19T02:02:59.576Z,0
2018-02-19T02:03:59.553Z,0
2018-02-19T02:04:59.550Z,0
2018-02-19T02:05:59.534Z,0
2018-02-19T02:06:59.257Z,0
2018-02-19T02:07:59.506Z,0
2018-02-19T02:08:59.484Z,0
2018-02-19T02:09:59.214Z,0
2018-02-19T02:10:59.199Z,0
2018-02-19T02:11:59.192Z,0
2018-02-19T02:12:59.427Z,0
2018-02-19T02:13:59.150Z,0
2018-02-19T02:14:59.436Z,0
2018-02-19T02:15:59.128Z,0
2018-02-19T02:16:59.360Z,0
2018-02-19T02:17:59.344Z,0
2018-02-19T02:18:59.344Z,0
2018-02-19T02:19:59.321Z,0
2018-02-19T02:20:59.054Z,0
2018-02-19T02:21:59.042Z,0
2018-02-19T02:22:59.278Z,0
2018-02-19T02:23:59.257Z,0
2018-02-19T02:24:59.316Z,0
2018-02-19T02:25:58.971Z,0
2018-02-19T02:26:59.214Z,0
2018-02-19T02:27:59.195Z,0
2018-02-19T02:28:59.186Z,0
2018-02-19T02:29:59.174Z,0
2018-02-19T02:30:58.903Z,0
2018-02-19T02:31:59.146Z,0
2018-02-19T02:32:59.134Z,0
2018-02-19T02:33:59.118Z,0
2018-02-19T02:34:58.844Z,0
2018-02-19T02:35:58.827Z,0
2018-02-19T02:36:58.826Z,0
2018-02-19T02:37:59.056Z,0
2018-02-19T02:38:59.035Z,0
2018-02-19T02:39:58.768Z,0
2018-02-19T02:40:59.003Z,0
2018-02-19T02:41:58.734Z,0
2018-02-19T02:42:58.732Z,0
2018-02-19T02:43:58.960Z,0
2018-02-19T02:44:58.947Z,0
2018-02-19T02:45:58.675Z,0
2018-02-19T02:46:58.911Z,0
2018-02-19T02:47:58.915Z,0
2018-02-19T02:48:58.641Z,0
2018-02-19T02:49:58.866Z,0
2018-02-19T02:50:58.600Z,0
2018-02-19T02:51:58.838Z,0
2018-02-19T02:52:58.823Z,0
2018-02-19T02:53:58.821Z,0
2018-02-19T02:54:58.794Z,0
2018-02-19T02:55:58.772Z,0
2018-02-19T02:56:58.510Z,0
2018-02-19T02:57:58.233Z,0
2018-02-19T02:58:58.745Z,0
2018-02-19T02:59:58.720Z,0
2018-02-19T03:00:58.447Z,0
2018-02-19T03:01:58.692Z,0
2018-02-19T03:02:58.673Z,0
2018-02-19T03:03:58.419Z,0
2018-02-19T03:05:13.045Z,0
2018-02-19T03:05:58.617Z,0
2018-02-19T03:06:58.906Z,0
2018-02-19T03:07:58.593Z,0
2018-02-19T03:08:58.623Z,0
2018-02-19T03:09:58.301Z,0
2018-02-19T03:10:58.300Z,0
2018-02-19T03:11:58.526Z,0
2018-02-19T03:12:58.511Z,0
2018-02-19T03:13:58.503Z,0
2018-02-19T03:14:58.228Z,0
2018-02-19T03:15:58.468Z,0
2018-02-19T03:16:58.196Z,0
2018-02-19T03:17:58.185Z,0
2018-02-19T03:18:58.421Z,0
2018-02-19T03:19:58.153Z,0
2018-02-19T03:20:58.399Z,0
2018-02-19T03:21:58.127Z,0
2018-02-19T03:22:58.365Z,0
2018-02-19T03:23:58.089Z,0
2018-02-19T03:24:58.340Z,0
2018-02-19T03:25:58.314Z,0
2018-02-19T03:26:58.304Z,0
2018-02-19T03:27:58.350Z,0
2018-02-19T03:28:58.268Z,0
2018-02-19T03:29:58.266Z,0
2018-02-19T03:30:57.992Z,0
2018-02-19T03:31:58.231Z,0
2018-02-19T03:32:58.216Z,0
2018-02-19T03:33:57.945Z,0
2018-02-19T03:34:58.184Z,0
2018-02-19T03:35:57.920Z,0
2018-02-19T03:36:57.910Z,0
2018-02-19T03:37:58.147Z,0
2018-02-19T03:38:57.878Z,0
2018-02-19T03:39:58.107Z,0
2018-02-19T03:40:58.088Z,0
2018-02-19T03:41:58.078Z,0
2018-02-19T03:42:58.079Z,0
2018-02-19T03:43:58.045Z,0
2018-02-19T03:44:58.025Z,0
2018-02-19T03:45:58.010Z,0
2018-02-19T03:46:58.053Z,0
2018-02-19T03:47:58.232Z,0
2018-02-19T03:48:57.715Z,0
2018-02-19T03:49:57.698Z,0
2018-02-19T03:50:57.936Z,0
2018-02-19T03:51:57.938Z,0
2018-02-19T03:52:57.900Z,0
2018-02-19T03:53:57.896Z,0
2018-02-19T03:54:57.914Z,0
2018-02-19T03:55:57.868Z,0
2018-02-19T03:56:57.854Z,0
2018-02-19T03:57:57.324Z,0
2018-02-19T03:58:57.819Z,0
2018-02-19T03:59:57.546Z,0
2018-02-19T04:00:57.795Z,0
2018-02-19T04:01:57.766Z,0
2018-02-19T04:02:57.504Z,0
2018-02-19T04:03:57.493Z,0
2018-02-19T04:04:57.774Z,0
2018-02-19T04:05:57.716Z,0
2018-02-19T04:06:57.433Z,0
2018-02-19T04:07:57.430Z,0
2018-02-19T04:08:57.658Z,0
2018-02-19T04:09:57.646Z,0
2018-02-19T04:10:57.637Z,0
2018-02-19T04:11:57.619Z,0
2018-02-19T04:12:57.348Z,0
2018-02-19T04:13:57.579Z,0
2018-02-19T04:14:57.565Z,0
2018-02-19T04:15:57.557Z,0
2018-02-19T04:16:57.535Z,0
2018-02-19T04:17:57.527Z,0
2018-02-19T04:18:56.996Z,0
2018-02-19T04:19:57.491Z,0
2018-02-19T04:20:57.489Z,0
2018-02-19T04:21:57.475Z,0
2018-02-19T04:22:57.454Z,0
2018-02-19T04:23:57.434Z,0
2018-02-19T04:24:57.164Z,0
2018-02-19T04:25:57.396Z,0
2018-02-19T04:26:57.386Z,0
2018-02-19T04:27:57.376Z,0
2018-02-19T04:28:57.106Z,0
2018-02-19T04:29:57.081Z,0
2018-02-19T04:30:57.072Z,0
2018-02-19T04:31:57.324Z,0
2018-02-19T04:32:57.294Z,0
2018-02-19T04:33:57.282Z,0
2018-02-19T04:34:57.571Z,0
2018-02-19T04:35:57.245Z,0
2018-02-19T04:36:57.241Z,0
2018-02-19T04:37:57.213Z,0
2018-02-19T04:38:56.951Z,0
2018-02-19T04:39:57.182Z,0
2018-02-19T04:40:56.914Z,0
2018-02-19T04:41:57.158Z,0
2018-02-19T04:42:57.150Z,0
2018-02-19T04:43:56.861Z,0
2018-02-19T04:44:57.108Z,0
2018-02-19T04:45:57.112Z,0
2018-02-19T04:46:57.080Z,0
2018-02-19T04:47:57.072Z,0
2018-02-19T04:48:57.052Z,0
2018-02-19T04:49:57.029Z,0
2018-02-19T04:50:57.014Z,0
2018-02-19T04:51:57.003Z,0
2018-02-19T04:52:56.737Z,0
2018-02-19T04:53:57.028Z,0
2018-02-19T04:54:56.957Z,0
2018-02-19T04:55:56.940Z,0
2018-02-19T04:56:56.920Z,0
2018-02-19T04:57:56.905Z,0
2018-02-19T04:58:56.640Z,0
2018-02-19T04:59:56.872Z,0
2018-02-19T05:00:56.865Z,0
2018-02-19T05:01:56.590Z,0
2018-02-19T05:02:56.878Z,0
2018-02-19T05:03:56.811Z,0
2018-02-19T05:04:56.794Z,0
2018-02-19T05:05:57.047Z,0
2018-02-19T05:06:56.711Z,0
2018-02-19T05:07:56.861Z,0
2018-02-19T05:08:57.295Z,0
2018-02-19T05:09:56.843Z,0
2018-02-19T05:10:56.936Z,0
2018-02-19T05:11:56.694Z,0
2018-02-19T05:12:56.672Z,0
2018-02-19T05:13:56.651Z,0
2018-02-19T05:14:56.639Z,0
2018-02-19T05:15:56.624Z,0
2018-02-19T05:16:56.610Z,0
2018-02-19T05:17:56.591Z,0
2018-02-19T05:18:56.572Z,0
2018-02-19T05:19:56.562Z,0
2018-02-19T05:20:56.288Z,0
2018-02-19T05:21:56.537Z,0
2018-02-19T05:22:56.333Z,0
2018-02-19T05:23:56.495Z,0
2018-02-19T05:24:56.482Z,0
2018-02-19T05:25:56.206Z,0
2018-02-19T05:26:56.197Z,0
2018-02-19T05:27:56.431Z,0
2018-02-19T05:28:56.419Z,0
2018-02-19T05:29:56.398Z,0
2018-02-19T05:30:56.385Z,0
2018-02-19T05:31:56.377Z,0
2018-02-19T05:32:56.101Z,0
2018-02-19T05:33:56.076Z,0
2018-02-19T05:34:56.325Z,0
2018-02-19T05:35:56.318Z,0
2018-02-19T05:36:56.334Z,0
2018-02-19T05:37:56.333Z,0
2018-02-19T05:38:55.994Z,0
2018-02-19T05:39:55.990Z,0
2018-02-19T05:40:55.715Z,0
2018-02-19T05:41:55.948Z,0
2018-02-19T05:42:56.185Z,0
2018-02-19T05:43:55.666Z,0
2018-02-19T05:44:55.650Z,0
2018-02-19T05:45:56.138Z,0
2018-02-19T05:46:56.139Z,0
2018-02-19T05:47:56.114Z,0
2018-02-19T05:48:56.092Z,0
2018-02-19T05:49:55.567Z,0
2018-02-19T05:50:55.555Z,0
2018-02-19T05:51:56.045Z,0
2018-02-19T05:52:56.118Z,0
2018-02-19T05:53:55.756Z,0
2018-02-19T05:54:55.496Z,0
2018-02-19T05:55:55.744Z,0
2018-02-19T05:56:55.705Z,0
2018-02-19T05:57:55.952Z,0
2018-02-19T05:58:55.684Z,0
2018-02-19T05:59:55.918Z,0
2018-02-19T06:00:55.653Z,0
2018-02-19T06:01:55.629Z,0
2018-02-19T06:02:55.635Z,0
2018-02-19T06:03:55.859Z,0
2018-02-19T06:04:55.838Z,5
2018-02-19T06:05:55.821Z,5
2018-02-19T06:06:55.806Z,5
2018-02-19T06:07:55.788Z,5
2018-02-19T06:08:55.772Z,5
2018-02-19T06:09:55.754Z,10
2018-02-19T06:10:55.775Z,10
2018-02-19T06:11:55.477Z,10
2018-02-19T06:12:55.452Z,10
2018-02-19T06:13:55.689Z,10
2018-02-19T06:14:55.167Z,10
2018-02-19T06:15:55.152Z,15
2018-02-19T06:16:55.649Z,15
2018-02-19T06:17:55.628Z,15
2018-02-19T06:18:55.618Z,15
2018-02-19T06:19:55.080Z,20
2018-02-19T06:20:55.580Z,20
2018-02-19T06:21:55.050Z,20
2018-02-19T06:22:55.552Z,25
2018-02-19T06:23:55.366Z,25
2018-02-19T06:24:55.262Z,25
2018-02-19T06:25:55.489Z,30
2018-02-19T06:26:55.482Z,30
2018-02-19T06:27:55.463Z,30
2018-02-19T06:28:54.945Z,35
2018-02-19T06:29:55.442Z,35
2018-02-19T06:30:54.905Z,35
2018-02-19T06:31:55.417Z,40
2018-02-19T06:32:55.385Z,40
2018-02-19T06:33:55.373Z,40
2018-02-19T06:34:55.100Z,40
2018-02-19T06:35:55.409Z,40
2018-02-19T06:36:55.328Z,40
2018-02-19T06:37:55.305Z,45
2018-02-19T06:38:55.038Z,45
2018-02-19T06:39:55.275Z,45
2018-02-19T06:40:55.281Z,45
2018-02-19T06:41:55.016Z,45
2018-02-19T06:42:54.973Z,50
2018-02-19T06:43:54.952Z,50
2018-02-19T06:44:54.939Z,50
2018-02-19T06:45:54.936Z,55
2018-02-19T06:46:55.165Z,55
2018-02-19T06:47:55.155Z,60
2018-02-19T06:48:55.140Z,60
2018-02-19T06:49:55.126Z,65
2018-02-19T06:50:55.106Z,65
2018-02-19T06:51:55.086Z,70
2018-02-19T06:52:55.071Z,70
2018-02-19T06:53:55.056Z,75
2018-02-19T06:54:55.043Z,75
2018-02-19T06:55:55.022Z,80
2018-02-19T06:56:55.008Z,85
2018-02-19T06:57:54.992Z,85
2018-02-19T06:58:54.715Z,90
2018-02-19T06:59:54.959Z,95
2018-02-19T07:00:54.962Z,95
2018-02-19T07:01:54.677Z,100
2018-02-19T07:02:54.929Z,105
2018-02-19T07:03:54.646Z,110
2018-02-19T07:04:54.883Z,115
2018-02-19T07:05:54.866Z,120
2018-02-19T07:06:54.853Z,125
2018-02-19T07:07:54.844Z,135
2018-02-19T07:08:54.820Z,135
2018-02-19T07:09:54.854Z,140
2018-02-19T07:10:55.046Z,145
2018-02-19T07:11:54.518Z,150
2018-02-19T07:12:54.547Z,150
2018-02-19T07:13:54.756Z,155
2018-02-19T07:14:54.751Z,155
2018-02-19T07:15:54.713Z,160
2018-02-19T07:16:54.441Z,160
2018-02-19T07:17:54.709Z,160
2018-02-19T07:18:54.409Z,160
2018-02-19T07:19:54.667Z,160
2018-02-19T07:20:54.636Z,160
2018-02-19T07:21:54.631Z,165
2018-02-19T07:22:54.611Z,165
2018-02-19T07:23:54.600Z,170
2018-02-19T07:24:54.581Z,170
2018-02-19T07:25:54.563Z,175
2018-02-19T07:26:54.543Z,180
2018-02-19T07:27:54.537Z,180
2018-02-19T07:28:54.525Z,185
2018-02-19T07:29:54.563Z,185
2018-02-19T07:30:54.494Z,180
2018-02-19T07:31:53.963Z,200
2018-02-19T07:32:54.466Z,200
2018-02-19T07:33:54.451Z,195
2018-02-19T07:34:54.442Z,190
2018-02-19T07:35:54.579Z,180
2018-02-19T07:36:54.156Z,180
2018-02-19T07:37:54.411Z,185
2018-02-19T07:38:54.382Z,190
2018-02-19T07:39:54.367Z,185
2018-02-19T07:40:54.360Z,185
2018-02-19T07:41:54.353Z,185
2018-02-19T07:42:54.325Z,185
2018-02-19T07:43:54.050Z,190
2018-02-19T07:44:54.306Z,185
2018-02-19T07:45:54.028Z,185
2018-02-19T07:46:54.007Z,185
2018-02-19T07:47:54.269Z,185
2018-02-19T07:48:54.241Z,185
2018-02-19T07:49:53.971Z,185
2018-02-19T07:50:54.213Z,190
2018-02-19T07:51:54.219Z,190
2018-02-19T07:52:54.235Z,190
2018-02-19T07:53:54.176Z,195
2018-02-19T07:54:54.163Z,195
2018-02-19T07:55:54.155Z,200
2018-02-19T07:56:54.138Z,205
2018-02-19T07:57:53.864Z,210
2018-02-19T07:58:54.114Z,210
2018-02-19T07:59:53.840Z,210
2018-02-19T08:00:53.594Z,215
2018-02-19T08:01:54.079Z,215
2018-02-19T08:02:54.129Z,215
2018-02-19T08:03:54.039Z,215
2018-02-19T08:04:54.075Z,215
2018-02-19T08:05:54.009Z,215
2018-02-19T08:06:53.747Z,215
2018-02-19T08:07:53.737Z,220
2018-02-19T08:08:53.967Z,220
2018-02-19T08:09:53.963Z,220
2018-02-19T08:10:53.958Z,220
2018-02-19T08:11:53.686Z,225
2018-02-19T08:12:53.949Z,225
2018-02-19T08:13:53.652Z,230
2018-02-19T08:14:53.895Z,235
2018-02-19T08:15:53.887Z,240
2018-02-19T08:16:53.607Z,240
2018-02-19T08:17:53.859Z,240
2018-02-19T08:18:53.596Z,245
2018-02-19T08:19:53.317Z,250
2018-02-19T08:20:53.823Z,250
2018-02-19T08:21:53.557Z,250
2018-02-19T08:22:53.787Z,255
2018-02-19T08:23:53.809Z,255
2018-02-19T08:24:53.515Z,260
2018-02-19T08:25:53.492Z,260
2018-02-19T08:26:53.737Z,265
2018-02-19T08:27:53.728Z,270
2018-02-19T08:28:53.459Z,270
2018-02-19T08:29:53.734Z,270
2018-02-19T08:30:53.684Z,275
2018-02-19T08:31:53.708Z,270
2018-02-19T08:32:53.661Z,270
2018-02-19T08:33:53.396Z,270
2018-02-19T08:34:53.639Z,270
2018-02-19T08:35:53.639Z,270
2018-02-19T08:36:53.605Z,270
2018-02-19T08:37:53.599Z,270
2018-02-19T08:38:53.356Z,270
2018-02-19T08:39:53.058Z,270
2018-02-19T08:40:53.559Z,275
2018-02-19T08:41:53.544Z,280
2018-02-19T08:42:53.556Z,280
2018-02-19T08:43:53.773Z,285
2018-02-19T08:44:53.547Z,285
2018-02-19T08:45:53.497Z,285
2018-02-19T08:46:53.228Z,290
2018-02-19T08:47:53.469Z,290
2018-02-19T08:48:53.237Z,290
2018-02-19T08:49:53.442Z,290
2018-02-19T08:50:53.442Z,285
2018-02-19T08:51:53.431Z,290
2018-02-19T08:52:53.420Z,290
2018-02-19T08:53:53.392Z,285
2018-02-19T08:54:53.391Z,290
2018-02-19T08:55:53.118Z,290
2018-02-19T08:56:53.100Z,295
2018-02-19T08:57:53.117Z,300
2018-02-19T08:58:53.352Z,310
2018-02-19T08:59:53.518Z,315
2018-02-19T09:00:53.063Z,320
2018-02-19T09:01:53.079Z,325
2018-02-19T09:02:53.282Z,325
2018-02-19T09:03:53.275Z,325
2018-02-19T09:04:53.290Z,325
2018-02-19T09:05:53.365Z,325
2018-02-19T09:06:53.035Z,325
2018-02-19T09:07:53.022Z,330
2018-02-19T09:08:52.704Z,335
2018-02-19T09:09:53.198Z,335
2018-02-19T09:10:53.238Z,335
2018-02-19T09:11:53.177Z,335
2018-02-19T09:12:52.913Z,330
2018-02-19T09:13:53.171Z,325
2018-02-19T09:14:53.440Z,325
2018-02-19T09:15:52.887Z,310
2018-02-19T09:16:53.145Z,305
2018-02-19T09:17:53.113Z,295
2018-02-19T09:18:53.213Z,290
2018-02-19T09:19:53.090Z,290
2018-02-19T09:20:53.074Z,290
2018-02-19T09:21:53.072Z,290
2018-02-19T09:22:53.146Z,295
2018-02-19T09:23:53.062Z,295
2018-02-19T09:24:53.035Z,300
2018-02-19T09:25:52.770Z,300
2018-02-19T09:26:53.017Z,305
2018-02-19T09:27:52.994Z,315
2018-02-19T09:28:52.730Z,315
2018-02-19T09:29:52.751Z,315
2018-02-19T09:30:52.973Z,315
2018-02-19T09:31:52.975Z,320
2018-02-19T09:32:52.685Z,320
2018-02-19T09:33:52.439Z,320
2018-02-19T09:34:52.665Z,320
2018-02-19T09:35:52.908Z,320
2018-02-19T09:36:52.902Z,320
2018-02-19T09:37:52.894Z,320
2018-02-19T09:38:52.874Z,320
2018-02-19T09:39:52.857Z,325
2018-02-19T09:40:52.853Z,325
2018-02-19T09:41:52.895Z,330
2018-02-19T09:42:52.824Z,330
2018-02-19T09:43:52.317Z,335
2018-02-19T09:44:52.824Z,335
2018-02-19T09:45:52.804Z,340
2018-02-19T09:46:53.038Z,340
2018-02-19T09:47:52.924Z,340
2018-02-19T09:48:52.762Z,330
2018-02-19T09:50:07.441Z,325
2018-02-19T09:50:52.741Z,320
2018-02-19T09:51:52.731Z,320
2018-02-19T09:52:52.496Z,315
2018-02-19T09:53:52.708Z,310
2018-02-19T09:54:52.437Z,310
2018-02-19T09:55:52.696Z,315
2018-02-19T09:56:52.673Z,315
2018-02-19T09:57:52.422Z,325
2018-02-19T09:58:52.662Z,325
2018-02-19T09:59:52.651Z,330
2018-02-19T10:00:52.636Z,335
2018-02-19T10:01:52.629Z,340
2018-02-19T10:02:52.615Z,345
2018-02-19T10:03:52.597Z,345
2018-02-19T10:04:52.348Z,350
2018-02-19T10:05:52.613Z,350
2018-02-19T10:06:52.566Z,355
2018-02-19T10:07:52.306Z,355
2018-02-19T10:08:52.293Z,355
2018-02-19T10:09:52.307Z,355
2018-02-19T10:10:52.566Z,355
2018-02-19T10:11:52.541Z,360
2018-02-19T10:12:52.249Z,355
2018-02-19T10:13:52.501Z,355
2018-02-19T10:14:52.227Z,355
2018-02-19T10:15:52.246Z,350
2018-02-19T10:16:52.315Z,350
2018-02-19T10:17:52.720Z,335
2018-02-19T10:18:52.465Z,330
2018-02-19T10:19:52.168Z,325
2018-02-19T10:20:52.203Z,320
2018-02-19T10:21:52.157Z,315
2018-02-19T10:22:52.412Z,310
2018-02-19T10:23:52.389Z,305
2018-02-19T10:24:51.867Z,310
2018-02-19T10:25:52.386Z,305
2018-02-19T10:26:52.099Z,300
2018-02-19T10:27:52.353Z,295
2018-02-19T10:28:52.369Z,290
2018-02-19T10:29:52.364Z,290
2018-02-19T10:30:52.066Z,290
2018-02-19T10:31:52.302Z,290
2018-02-19T10:32:52.060Z,290
2018-02-19T10:33:52.048Z,290
2018-02-19T10:34:52.288Z,290
2018-02-19T10:35:52.278Z,285
2018-02-19T10:36:52.261Z,285
2018-02-19T10:37:51.993Z,285
2018-02-19T10:38:52.234Z,285
2018-02-19T10:39:51.970Z,285
2018-02-19T10:40:52.238Z,285
2018-02-19T10:41:51.962Z,285
2018-02-19T10:42:52.189Z,280
2018-02-19T10:43:52.182Z,280
2018-02-19T10:44:52.177Z,285
2018-02-19T10:45:52.168Z,285
2018-02-19T10:46:51.897Z,290
2018-02-19T10:47:51.905Z,300
2018-02-19T10:48:52.141Z,300
2018-02-19T10:49:52.347Z,305
2018-02-19T10:50:52.125Z,310
2018-02-19T10:51:52.099Z,315
2018-02-19T10:52:51.951Z,320
2018-02-19T10:53:51.833Z,325
2018-02-19T10:54:51.638Z,335
2018-02-19T10:55:51.821Z,340
2018-02-19T10:56:52.047Z,340
2018-02-19T10:57:52.065Z,340
2018-02-19T10:58:52.070Z,340
2018-02-19T10:59:52.039Z,340
2018-02-19T11:00:52.076Z,340
2018-02-19T11:01:52.021Z,340
2018-02-19T11:02:52.007Z,340
2018-02-19T11:03:51.718Z,345
2018-02-19T11:04:51.963Z,345
2018-02-19T11:05:51.954Z,350
2018-02-19T11:06:51.681Z,355
2018-02-19T11:07:51.681Z,360
2018-02-19T11:08:51.921Z,365
2018-02-19T11:09:51.930Z,370
2018-02-19T11:10:51.671Z,370
2018-02-19T11:11:51.919Z,375
2018-02-19T11:12:51.668Z,380
2018-02-19T11:13:51.966Z,385
2018-02-19T11:14:51.907Z,380
2018-02-19T11:15:51.608Z,385
2018-02-19T11:16:51.582Z,390
2018-02-19T11:17:51.838Z,385
2018-02-19T11:18:51.817Z,385
2018-02-19T11:19:52.056Z,385
2018-02-19T11:20:51.817Z,390
2018-02-19T11:21:51.801Z,390
2018-02-19T11:22:51.792Z,395
2018-02-19T11:23:51.989Z,400
2018-02-19T11:24:51.504Z,405
2018-02-19T11:25:51.763Z,410
2018-02-19T11:26:51.545Z,410
2018-02-19T11:27:51.750Z,410
2018-02-19T11:28:51.961Z,405
2018-02-19T11:29:51.507Z,400
2018-02-19T11:31:06.121Z,385
2018-02-19T11:31:51.715Z,380
2018-02-19T11:32:51.726Z,370
2018-02-19T11:33:51.678Z,360
2018-02-19T11:34:51.671Z,355
2018-02-19T11:35:51.468Z,345
2018-02-19T11:36:51.437Z,340
2018-02-19T11:37:51.652Z,335
2018-02-19T11:39:00.415Z,335
2018-02-19T11:39:51.365Z,340
2018-02-19T11:40:51.384Z,340
2018-02-19T11:41:51.592Z,340
2018-02-19T11:42:51.356Z,340
2018-02-19T11:43:51.643Z,340
2018-02-19T11:44:51.574Z,340
2018-02-19T11:45:51.341Z,340
2018-02-19T11:46:51.094Z,345
2018-02-19T11:47:51.277Z,345
2018-02-19T11:48:51.567Z,340
2018-02-19T11:49:51.544Z,335
2018-02-19T11:50:51.766Z,330
2018-02-19T11:51:51.280Z,325
2018-02-19T11:52:51.502Z,315
2018-02-19T11:53:51.488Z,310
2018-02-19T11:54:51.549Z,310
2018-02-19T11:55:50.952Z,310
2018-02-19T11:56:50.943Z,310
2018-02-19T11:57:51.453Z,310
2018-02-19T11:58:51.473Z,310
2018-02-19T11:59:51.526Z,310
2018-02-19T12:00:51.428Z,310
2018-02-19T12:01:51.403Z,315
2018-02-19T12:02:51.142Z,320
2018-02-19T12:03:51.144Z,320
2018-02-19T12:04:51.396Z,325
2018-02-19T12:05:51.368Z,325
2018-02-19T12:06:51.116Z,325
2018-02-19T12:07:51.372Z,325
2018-02-19T12:08:51.225Z,325
2018-02-19T12:09:51.072Z,325
2018-02-19T12:10:50.810Z,320
2018-02-19T12:11:50.812Z,320
2018-02-19T12:12:50.804Z,315
2018-02-19T12:13:51.298Z,315
2018-02-19T12:14:51.031Z,310
2018-02-19T12:15:50.760Z,310
2018-02-19T12:16:51.058Z,315
2018-02-19T12:17:51.287Z,315
2018-02-19T12:18:51.309Z,320
2018-02-19T12:19:51.238Z,320
2018-02-19T12:20:50.972Z,325
2018-02-19T12:21:51.213Z,320
2018-02-19T12:22:50.946Z,325
2018-02-19T12:23:51.227Z,325
2018-02-19T12:24:50.690Z,325
2018-02-19T12:25:51.213Z,320
2018-02-19T12:26:51.191Z,320
2018-02-19T12:27:51.178Z,310
2018-02-19T12:28:51.181Z,305
2018-02-19T12:29:51.147Z,300
2018-02-19T12:30:51.140Z,295
2018-02-19T12:31:51.129Z,290
2018-02-19T12:32:51.112Z,290
2018-02-19T12:33:51.109Z,290
2018-02-19T12:34:51.144Z,290
2018-02-19T12:35:51.118Z,295
2018-02-19T12:36:51.079Z,300
2018-02-19T12:37:51.070Z,305
2018-02-19T12:38:51.053Z,305
2018-02-19T12:40:05.798Z,310
2018-02-19T12:40:50.794Z,315
2018-02-19T12:41:50.781Z,320
2018-02-19T12:42:50.758Z,325
2018-02-19T12:43:51.010Z,330
2018-02-19T12:44:50.751Z,340
2018-02-19T12:45:51.006Z,340
2018-02-19T12:46:50.983Z,350
2018-02-19T12:47:50.973Z,355
2018-02-19T12:48:50.958Z,360
2018-02-19T12:49:50.443Z,365
2018-02-19T12:50:50.683Z,365
2018-02-19T12:51:50.426Z,370
2018-02-19T12:52:50.924Z,365
2018-02-19T12:53:50.916Z,365
2018-02-19T12:54:50.426Z,365
2018-02-19T12:55:50.701Z,370
2018-02-19T12:56:50.925Z,360
2018-02-19T12:57:50.509Z,360
2018-02-19T12:58:51.215Z,360
2018-02-19T12:59:50.397Z,350
2018-02-19T13:00:50.617Z,345
2018-02-19T13:01:50.597Z,330
2018-02-19T13:02:50.576Z,320
2018-02-19T13:03:50.304Z,315
2018-02-19T13:04:50.823Z,310
2018-02-19T13:05:50.547Z,300
2018-02-19T13:06:50.291Z,295
2018-02-19T13:07:50.533Z,290
2018-02-19T13:08:50.588Z,285
2018-02-19T13:09:50.777Z,285
2018-02-19T13:10:50.250Z,285
2018-02-19T13:11:50.498Z,290
2018-02-19T13:12:50.483Z,290
2018-02-19T13:13:50.244Z,290
2018-02-19T13:14:50.240Z,290
2018-02-19T13:15:50.203Z,295
2018-02-19T13:16:50.450Z,290
2018-02-19T13:17:50.737Z,290
2018-02-19T13:18:50.699Z,285
2018-02-19T13:19:50.164Z,280
2018-02-19T13:20:50.684Z,275
2018-02-19T13:21:50.152Z,275
2018-02-19T13:22:50.387Z,265
2018-02-19T13:23:50.891Z,260
2018-02-19T13:24:50.374Z,250
2018-02-19T13:25:50.112Z,245
2018-02-19T13:26:50.368Z,245
2018-02-19T13:27:50.597Z,235
2018-02-19T13:28:50.641Z,230
2018-02-19T13:29:50.327Z,225
2018-02-19T13:30:50.313Z,225
2018-02-19T13:31:50.053Z,225
2018-02-19T13:32:50.296Z,230
2018-02-19T13:33:50.674Z,235
2018-02-19T13:34:50.538Z,245
2018-02-19T13:35:50.269Z,245
2018-02-19T13:36:50.006Z,250
2018-02-19T13:37:50.709Z,250
2018-02-19T13:38:50.245Z,255
2018-02-19T13:39:50.261Z,255
2018-02-19T13:40:50.470Z,255
2018-02-19T13:41:50.475Z,255
2018-02-19T13:42:50.201Z,250
2018-02-19T13:43:50.444Z,245
2018-02-19T13:44:50.456Z,240
2018-02-19T13:45:49.918Z,235
2018-02-19T13:46:50.424Z,230
2018-02-19T13:47:50.420Z,225
2018-02-19T13:48:50.146Z,220
2018-02-19T13:49:50.401Z,215
2018-02-19T13:50:50.402Z,215
2018-02-19T13:51:50.110Z,210
2018-02-19T13:52:50.367Z,210
2018-02-19T13:53:50.101Z,210
2018-02-19T13:54:50.335Z,210
2018-02-19T13:55:50.066Z,210
2018-02-19T13:56:50.067Z,210
2018-02-19T13:57:50.323Z,210
2018-02-19T13:58:50.323Z,210
2018-02-19T13:59:49.516Z,210
2018-02-19T14:00:50.281Z,210
2018-02-19T14:01:50.305Z,210
2018-02-19T14:02:50.012Z,210
2018-02-19T14:03:50.292Z,215
2018-02-19T14:04:50.249Z,215
2018-02-19T14:05:49.967Z,215
2018-02-19T14:06:50.211Z,220
2018-02-19T14:07:50.202Z,220
2018-02-19T14:08:49.943Z,220
2018-02-19T14:09:50.191Z,220
2018-02-19T14:10:49.911Z,220
2018-02-19T14:11:50.161Z,215
2018-02-19T14:12:49.910Z,215